Time;durP1;ratioP1;P1;durP2;ratioP2;P2;SDS_P1;SDS_P2;PMS_P1;PMS_P2;Temp;Humidity;BMP_temperature;BMP_pressure;BME280_temperature;BME280_humidity;BME280_pressure;Samples;Min_cycle;Max_cycle;Signal;HPM_P1;HPM_P2
2023/04/29 00:00:11;;;;;;;8.25;5.22;;;;;;;11.62;100.00;100486.28;681732;28;1611;-73
2023/04/29 00:00:35;;;;;;;8.07;5.10;;;;;;;11.57;100.00;100489.84;678593;29;1442;-72
2023/04/29 00:00:55;;;;;;;8.18;5.10;;;;;;;11.55;100.00;100488.97;676172;29;4528;-74
2023/04/29 00:01:16;;;;;;;8.13;5.17;;;;;;;11.58;100.00;100488.94;679100;29;1206;-73
2023/04/29 00:01:36;;;;;;;8.10;5.25;;;;;;;11.56;100.00;100488.09;678581;29;1250;-72
2023/04/29 00:01:58;;;;;;;8.33;5.00;;;;;;;11.54;100.00;100489.84;680656;28;2072;-72
2023/04/29 00:02:19;;;;;;;8.13;5.10;;;;;;;11.51;100.00;100487.28;683469;28;1226;-72
2023/04/29 00:02:39;;;;;;;8.63;5.07;;;;;;;11.50;100.00;100495.16;685621;28;1196;-73
2023/04/29 00:03:00;;;;;;;8.23;4.90;;;;;;;11.51;100.00;100491.66;684620;28;1466;-73
2023/04/29 00:03:21;;;;;;;8.50;5.13;;;;;;;11.49;100.00;100481.19;686465;28;1271;-72
2023/04/29 00:03:41;;;;;;;8.83;5.53;;;;;;;11.43;100.00;100486.47;686881;28;4347;-71
2023/04/29 00:04:01;;;;;;;8.50;4.95;;;;;;;11.55;100.00;100483.72;683600;28;1573;-73
2023/04/29 00:04:22;;;;;;;8.93;5.13;;;;;;;11.58;100.00;100488.94;684389;28;948;-72
2023/04/29 00:04:42;;;;;;;9.07;5.50;;;;;;;11.53;100.00;100485.53;685275;28;945;-71
2023/04/29 00:05:04;;;;;;;8.57;5.13;;;;;;;11.57;100.00;100479.38;686286;28;1546;-73
2023/04/29 00:05:24;;;;;;;7.57;4.95;;;;;;;11.70;100.00;100481.81;687534;28;798;-73
2023/04/29 00:05:45;;;;;;;7.55;4.78;;;;;;;11.65;100.00;100487.09;688776;28;912;-73
2023/04/29 00:06:05;;;;;;;8.07;4.80;;;;;;;11.64;100.00;100487.13;687683;28;911;-71
2023/04/29 00:06:27;;;;;;;8.23;5.20;;;;;;;11.58;100.00;100488.94;689010;28;1360;-72
2023/04/29 00:06:47;;;;;;;7.53;4.90;;;;;;;11.58;100.00;100485.44;688416;28;4459;-73
2023/04/29 00:07:08;;;;;;;8.27;4.90;;;;;;;11.53;100.00;100485.53;684660;28;1434;-72
2023/04/29 00:07:28;;;;;;;8.05;5.00;;;;;;;11.51;100.00;100482.03;685653;28;972;-71
2023/04/29 00:07:48;;;;;;;8.73;5.27;;;;;;;11.49;100.00;100489.06;684884;28;1209;-72
2023/04/29 00:08:09;;;;;;;9.87;5.43;;;;;;;11.48;100.00;100481.19;682401;28;1576;-74
2023/04/29 00:08:29;;;;;;;8.83;4.80;;;;;;;11.46;100.00;100485.59;685695;28;1272;-72
2023/04/29 00:08:51;;;;;;;8.23;4.47;;;;;;;11.45;100.00;100483.84;687216;28;777;-72
2023/04/29 00:09:11;;;;;;;7.25;4.50;;;;;;;11.49;100.00;100489.06;687595;28;1616;-71
2023/04/29 00:09:32;;;;;;;8.15;4.88;;;;;;;11.44;100.00;100483.00;688857;28;889;-71
2023/04/29 00:09:53;;;;;;;7.90;4.73;;;;;;;11.46;100.00;100483.81;685464;28;4270;-71
2023/04/29 00:10:13;;;;;;;7.75;4.68;;;;;;;11.41;100.00;100485.66;683024;28;1679;-72
2023/04/29 00:10:36;;;;;;;8.13;4.90;;;;;;;11.45;100.00;100486.47;686196;28;1418;-72
2023/04/29 00:10:57;;;;;;;7.78;4.85;;;;;;;11.44;100.00;100489.97;682481;28;1597;-69
2023/04/29 00:11:17;;;;;;;8.20;4.90;;;;;;;11.49;100.00;100483.81;682849;28;846;-72
2023/04/29 00:11:37;;;;;;;8.57;4.80;;;;;;;11.49;100.00;100486.44;684170;28;1251;-70
2023/04/29 00:11:58;;;;;;;8.27;4.80;;;;;;;11.49;100.00;100486.44;684038;28;1526;-71
2023/04/29 00:12:18;;;;;;;8.20;5.10;;;;;;;11.48;100.00;100484.69;685543;28;948;-69
2023/04/29 00:12:41;;;;;;;9.03;5.33;;;;;;;11.47;100.00;100488.19;686739;28;4385;-70
2023/04/29 00:13:02;;;;;;;9.32;5.00;;;;;;;11.51;100.00;100496.88;686862;28;1594;-70
2023/04/29 00:13:22;;;;;;;8.73;5.00;;;;;;;11.50;100.00;100484.66;687671;28;1926;-71
2023/04/29 00:13:43;;;;;;;8.50;4.77;;;;;;;11.50;100.00;100484.66;687205;28;1507;-70
2023/04/29 00:14:03;;;;;;;7.45;4.60;;;;;;;11.51;100.00;100489.03;686123;28;1561;-69
2023/04/29 00:14:24;;;;;;;7.50;4.63;;;;;;;11.49;100.00;100483.81;687559;28;944;-70
2023/04/29 00:14:44;;;;;;;7.85;4.60;;;;;;;11.55;100.00;100486.34;687536;28;1291;-70
2023/04/29 00:15:05;;;;;;;8.37;5.03;;;;;;;11.59;100.00;100479.34;686093;28;1559;-72
2023/04/29 00:15:26;;;;;;;7.13;4.85;;;;;;;11.59;100.00;100481.97;687803;28;1079;-70
2023/04/29 00:15:46;;;;;;;7.65;4.90;;;;;;;11.60;100.00;100481.03;689119;28;4342;-70
2023/04/29 00:16:10;;;;;;;7.05;4.57;;;;;;;11.57;100.00;100492.44;689462;28;1212;-70
2023/04/29 00:16:31;;;;;;;8.10;5.03;;;;;;;11.59;100.00;100480.19;683770;28;3177;-71
2023/04/29 00:16:51;;;;;;;8.00;5.10;;;;;;;11.50;100.00;100485.53;685018;28;912;-69
2023/04/29 00:17:12;;;;;;;7.72;4.85;;;;;;;11.47;100.00;100482.94;680783;28;1604;-70
2023/04/29 00:17:32;;;;;;;7.23;4.77;;;;;;;11.48;100.00;100478.56;682135;28;959;-71
2023/04/29 00:17:52;;;;;;;7.30;4.90;;;;;;;11.44;100.00;100489.97;682181;29;783;-70
2023/04/29 00:18:13;;;;;;;8.03;5.00;;;;;;;11.39;100.00;100490.91;678344;28;1573;-69
2023/04/29 00:18:33;;;;;;;8.67;4.67;;;;;;;11.48;100.00;100481.19;686320;28;894;-72
2023/04/29 00:18:54;;;;;;;9.57;5.28;;;;;;;11.44;100.00;100482.09;683654;28;4350;-71
2023/04/29 00:19:14;;;;;;;8.60;5.13;;;;;;;11.51;100.00;100478.56;686781;28;1636;-70
2023/04/29 00:19:35;;;;;;;8.00;4.85;;;;;;;11.49;100.00;100482.94;688877;28;1223;-73
2023/04/29 00:19:55;;;;;;;8.55;4.53;;;;;;;11.54;100.00;100484.59;687380;28;1006;-72
2023/04/29 00:20:16;;;;;;;8.30;4.87;;;;;;;11.51;100.00;100484.66;691325;28;942;-71
2023/04/29 00:20:38;;;;;;;7.40;4.63;;;;;;;11.53;100.00;100482.00;686244;28;1194;-71
2023/04/29 00:20:58;;;;;;;8.38;4.88;;;;;;;11.46;100.00;100483.81;681380;28;1595;-72
2023/04/29 00:21:19;;;;;;;8.67;5.07;;;;;;;11.43;100.00;100483.88;683168;28;1316;-72
2023/04/29 00:21:40;;;;;;;7.88;4.85;;;;;;;11.47;100.00;100482.94;680503;29;4310;-72
2023/04/29 00:22:00;;;;;;;8.25;4.97;;;;;;;11.43;100.00;100483.00;678509;29;1461;-71
2023/04/29 00:22:21;;;;;;;8.07;5.17;;;;;;;11.39;100.00;100483.06;680942;28;1088;-71
2023/04/29 00:22:42;;;;;;;8.05;5.00;;;;;;;11.43;100.00;100478.63;681797;28;984;-72
2023/04/29 00:23:02;;;;;;;7.80;4.45;;;;;;;11.47;100.00;100485.56;683110;28;1762;-72
2023/04/29 00:23:23;;;;;;;8.80;4.83;;;;;;;11.49;100.00;100483.81;686589;28;1290;-72
2023/04/29 00:23:43;;;;;;;7.95;4.95;;;;;;;11.49;100.00;100475.97;687100;28;1134;-71
2023/04/29 00:24:04;;;;;;;7.43;4.50;;;;;;;11.51;100.00;100481.19;686974;28;1855;-72
2023/04/29 00:24:24;;;;;;;8.27;4.70;;;;;;;11.57;100.00;100488.94;690752;28;1283;-72
2023/04/29 00:24:45;;;;;;;9.23;5.22;;;;;;;11.55;100.00;100488.13;691540;28;4308;-71
2023/04/29 00:25:06;;;;;;;8.17;4.70;;;;;;;11.53;100.00;100482.00;687133;28;1554;-71
2023/04/29 00:25:26;;;;;;;7.70;4.85;;;;;;;11.46;100.00;100485.59;687428;28;1033;-70
2023/04/29 00:25:46;;;;;;;9.50;5.45;;;;;;;11.39;100.00;100487.41;682750;28;1267;-72
2023/04/29 00:26:07;;;;;;;8.30;5.00;;;;;;;11.41;100.00;100485.66;682659;28;1583;-71
2023/04/29 00:26:28;;;;;;;8.48;5.05;;;;;;;11.50;100.00;100485.53;687309;28;1189;-72
2023/04/29 00:26:48;;;;;;;8.88;5.18;;;;;;;11.47;100.00;100492.56;683300;28;906;-72
2023/04/29 00:27:10;;;;;;;7.67;4.53;;;;;;;11.43;100.00;100486.47;679611;28;1495;-73
2023/04/29 00:27:32;;;;;;;8.35;4.80;;;;;;;11.46;100.00;100482.97;682412;28;929;-72
2023/04/29 00:27:52;;;;;;;8.23;4.70;;;;;;;11.46;100.00;100493.44;686443;28;4309;-73
2023/04/29 00:28:12;;;;;;;8.65;5.05;;;;;;;11.53;100.00;100484.63;683264;28;1455;-71
2023/04/29 00:28:33;;;;;;;7.67;4.97;;;;;;;11.48;100.00;100496.91;686779;28;962;-72
2023/04/29 00:28:53;;;;;;;7.75;4.80;;;;;;;11.43;100.00;100486.47;683301;28;1382;-71
2023/04/29 00:29:14;;;;;;;8.23;4.57;;;;;;;11.39;100.00;100480.44;683470;28;1604;-77
2023/04/29 00:29:34;;;;;;;8.50;5.10;;;;;;;11.33;100.00;100490.09;683566;28;1348;-72
2023/04/29 00:29:56;;;;;;;8.43;5.23;;;;;;;11.32;100.00;100488.34;681494;29;1261;-73
2023/04/29 00:30:16;;;;;;;8.27;5.30;;;;;;;11.35;100.00;100486.59;683764;28;1268;-74
2023/04/29 00:30:36;;;;;;;8.77;5.30;;;;;;;11.34;100.00;100491.81;686960;28;1333;-70
2023/04/29 00:30:57;;;;;;;8.13;4.90;;;;;;;11.38;100.00;100490.91;680623;28;4298;-73
2023/04/29 00:31:17;;;;;;;8.93;5.33;;;;;;;11.46;100.00;100491.69;685686;28;1380;-72
2023/04/29 00:31:38;;;;;;;8.90;5.32;;;;;;;11.47;100.00;100484.72;686412;28;1201;-74
2023/04/29 00:31:58;;;;;;;8.23;5.10;;;;;;;11.52;100.00;100483.78;679020;29;1536;-74
2023/04/29 00:32:19;;;;;;;9.18;5.40;;;;;;;11.49;100.00;100488.16;681684;29;1284;-73
2023/04/29 00:32:39;;;;;;;8.90;5.07;;;;;;;11.44;100.00;100485.59;681869;28;928;-73
2023/04/29 00:33:00;;;;;;;8.15;5.00;;;;;;;11.41;100.00;100496.13;677349;29;1685;-73
2023/04/29 00:33:21;;;;;;;8.25;4.97;;;;;;;11.42;100.00;100495.22;675970;29;1919;-73
2023/04/29 00:33:41;;;;;;;8.27;4.90;;;;;;;11.44;100.00;100490.84;677963;29;4493;-72
2023/04/29 00:34:01;;;;;;;8.00;4.72;;;;;;;11.48;100.00;100492.53;679136;28;1035;-74
2023/04/29 00:34:22;;;;;;;8.33;4.63;;;;;;;11.44;100.00;100485.59;681075;29;1240;-74
2023/04/29 00:34:43;;;;;;;8.82;5.13;;;;;;;11.37;100.00;100497.03;675996;29;1174;-72
2023/04/29 00:35:04;;;;;;;8.57;5.00;;;;;;;11.33;100.00;100497.97;676021;29;1493;-73
2023/04/29 00:35:24;;;;;;;8.50;4.90;;;;;;;11.38;100.00;100491.78;680330;29;1633;-73
2023/04/29 00:35:45;;;;;;;9.23;5.43;;;;;;;11.34;100.00;100490.09;681329;28;1595;-73
2023/04/29 00:36:07;;;;;;;9.32;5.35;;;;;;;11.31;100.00;100490.13;676035;29;1209;-74
2023/04/29 00:36:28;;;;;;;8.57;5.07;;;;;;;11.35;100.00;100480.47;679591;29;1345;-72
2023/04/29 00:36:49;;;;;;;8.15;4.72;;;;;;;11.37;100.00;100491.81;680463;28;4341;-73
2023/04/29 00:37:11;;;;;;;9.27;5.10;;;;;;;11.31;100.00;100497.09;680841;28;1249;-72
2023/04/29 00:37:32;;;;;;;9.03;5.50;;;;;;;11.29;100.00;100499.72;682022;29;912;-73
2023/04/29 00:37:52;;;;;;;8.13;5.30;;;;;;;11.30;100.00;100492.72;685691;28;1432;-73
2023/04/29 00:38:13;;;;;;;9.68;5.40;;;;;;;11.31;100.00;100486.63;681094;28;992;-68
2023/04/29 00:38:33;;;;;;;8.93;5.17;;;;;;;11.36;100.00;100497.91;683184;28;889;-73
2023/04/29 00:38:54;;;;;;;8.90;5.25;;;;;;;11.39;100.00;100487.41;683967;28;5451;-73
2023/04/29 00:39:14;;;;;;;8.00;4.97;;;;;;;11.44;100.00;100492.56;685755;28;1170;-73
2023/04/29 00:39:35;;;;;;;8.10;5.35;;;;;;;11.33;100.00;100497.97;683470;28;1488;-73
2023/04/29 00:39:58;;;;;;;9.00;5.03;;;;;;;11.31;100.00;100502.31;683845;28;4252;-75
2023/04/29 00:40:19;;;;;;;9.40;5.03;;;;;;;11.28;100.00;100494.50;686751;28;1217;-73
2023/04/29 00:40:42;;;;;;;10.10;5.50;;;;;;;11.37;100.00;100497.03;682946;28;738;-73
2023/04/29 00:41:03;;;;;;;9.63;5.82;;;;;;;11.41;100.00;100489.13;681308;28;1110;-72
2023/04/29 00:41:24;;;;;;;11.38;6.32;;;;;;;11.41;100.00;100498.75;685395;28;1052;-72
2023/04/29 00:41:45;;;;;;;9.95;6.10;;;;;;;11.33;100.00;100503.19;687048;28;877;-72
2023/04/29 00:42:06;;;;;;;9.10;5.88;;;;;;;11.35;100.00;100506.63;682656;28;1532;-72
2023/04/29 00:42:30;;;;;;;9.75;5.90;;;;;;;11.34;100.00;100503.16;683728;28;972;-73
2023/04/29 00:42:51;;;;;;;9.68;5.70;;;;;;;11.30;100.00;100511.03;685327;28;4325;-69
2023/04/29 00:43:12;;;;;;;9.05;5.30;;;;;;;11.29;100.00;100506.72;686118;28;1241;-72
2023/04/29 00:43:32;;;;;;;11.10;5.63;;;;;;;11.27;100.00;100498.88;684255;28;1417;-63
2023/04/29 00:43:53;;;;;;;10.10;6.10;;;;;;;11.23;100.00;100500.66;684989;28;916;-68
2023/04/29 00:44:13;;;;;;;10.02;6.25;;;;;;;11.20;100.00;100505.03;685935;28;1220;-69
2023/04/29 00:44:33;;;;;;;10.43;5.87;;;;;;;11.29;100.00;100506.72;685499;28;1103;-68
2023/04/29 00:44:54;;;;;;;10.15;6.15;;;;;;;11.24;100.00;100501.50;686617;28;897;-70
2023/04/29 00:45:15;;;;;;;10.50;6.50;;;;;;;11.21;100.00;100501.53;684186;28;1334;-71
2023/04/29 00:45:35;;;;;;;10.73;6.27;;;;;;;11.22;100.00;100505.91;689030;28;936;-69
2023/04/29 00:45:58;;;;;;;10.37;6.07;;;;;;;11.21;100.00;100509.41;687046;28;4315;-71
2023/04/29 00:46:19;;;;;;;11.18;5.95;;;;;;;11.29;100.00;100504.09;687740;28;1383;-71
2023/04/29 00:46:40;;;;;;;10.25;5.60;;;;;;;11.21;100.00;100510.25;689851;28;869;-71
2023/04/29 00:47:00;;;;;;;9.80;5.50;;;;;;;11.24;100.00;100510.25;687006;28;900;-70
2023/04/29 00:47:21;;;;;;;10.23;6.07;;;;;;;11.25;100.00;100511.97;689218;28;852;-71
2023/04/29 00:47:41;;;;;;;10.63;6.10;;;;;;;11.21;100.00;100507.63;690366;28;1318;-69
2023/04/29 00:48:02;;;;;;;10.88;6.13;;;;;;;11.15;100.00;100510.31;687885;28;1250;-68
2023/04/29 00:48:22;;;;;;;11.73;6.30;;;;;;;11.18;100.00;100505.06;690057;28;1305;-69
2023/04/29 00:48:42;;;;;;;11.43;6.50;;;;;;;11.18;100.00;100505.06;692291;28;4363;-72
2023/04/29 00:49:03;;;;;;;11.20;6.57;;;;;;;11.16;100.00;100509.44;688716;28;1315;-71
2023/04/29 00:49:24;;;;;;;10.32;6.63;;;;;;;11.15;100.00;100505.09;687003;28;1329;-72
2023/04/29 00:49:44;;;;;;;10.75;6.63;;;;;;;11.14;100.00;100508.59;688128;28;1307;-71
2023/04/29 00:50:06;;;;;;;11.20;6.70;;;;;;;11.16;100.00;100517.31;683523;28;940;-72
2023/04/29 00:50:27;;;;;;;10.20;6.38;;;;;;;11.17;100.00;100502.47;682838;28;1169;-72
2023/04/29 00:50:50;;;;;;;9.68;6.30;;;;;;;11.16;100.00;100509.44;686701;28;1470;-70
2023/04/29 00:51:10;;;;;;;10.23;6.07;;;;;;;11.18;100.00;100506.81;686500;28;1374;-72
2023/04/29 00:51:32;;;;;;;11.50;6.55;;;;;;;11.16;100.00;100511.19;686010;28;1256;-69
2023/04/29 00:51:53;;;;;;;12.13;7.30;;;;;;;11.17;100.00;100505.06;690069;28;4362;-66
2023/04/29 00:52:14;;;;;;;13.10;7.78;;;;;;;11.21;100.00;100515.50;689211;28;944;-70
2023/04/29 00:52:36;;;;;;;13.05;8.23;;;;;;;11.21;100.00;100507.63;690312;28;936;-72
2023/04/29 00:52:56;;;;;;;13.55;7.65;;;;;;;11.26;100.00;100507.63;688288;28;1544;-72
2023/04/29 00:53:17;;;;;;;13.50;8.02;;;;;;;11.27;100.00;100513.69;688011;28;1934;-73
2023/04/29 00:53:38;;;;;;;12.18;7.75;;;;;;;11.21;100.00;100505.03;690338;28;1315;-67
2023/04/29 00:53:59;;;;;;;13.23;7.72;;;;;;;11.27;100.00;100508.47;686857;28;1329;-71
2023/04/29 00:54:19;;;;;;;12.33;8.07;;;;;;;11.18;100.00;100505.06;687210;28;1199;-70
2023/04/29 00:54:40;;;;;;;12.82;8.50;;;;;;;11.17;100.00;100507.69;686944;28;4396;-70
2023/04/29 00:55:01;;;;;;;12.75;8.45;;;;;;;11.17;100.00;100515.53;687453;28;1445;-73
2023/04/29 00:55:25;;;;;;;13.65;8.23;;;;;;;11.21;100.00;100512.88;688843;28;833;-71
2023/04/29 00:55:47;;;;;;;13.38;8.07;;;;;;;11.19;100.00;100511.19;683580;28;1178;-71
2023/04/29 00:56:07;;;;;;;13.68;8.23;;;;;;;11.12;100.00;100518.22;684477;28;1318;-72
2023/04/29 00:56:31;;;;;;;14.88;9.00;;;;;;;11.12;100.00;100515.59;682901;28;1301;-70
2023/04/29 00:56:52;;;;;;;14.27;8.43;;;;;;;11.08;100.00;100513.88;685320;28;845;-68
2023/04/29 00:57:13;;;;;;;15.20;8.80;;;;;;;11.07;100.00;100527.84;683822;28;1169;-70
2023/04/29 00:57:34;;;;;;;13.98;8.50;;;;;;;11.08;100.00;100513.88;686666;28;1343;-70
2023/04/29 00:57:56;;;;;;;13.80;8.77;;;;;;;10.99;100.00;100520.06;689242;28;4300;-70
2023/04/29 00:58:18;;;;;;;14.98;8.68;;;;;;;10.92;100.00;100522.75;688563;28;1142;-66
2023/04/29 00:58:38;;;;;;;15.18;8.98;;;;;;;10.90;100.00;100522.78;687835;28;1361;-72
2023/04/29 00:59:01;;;;;;;15.05;9.25;;;;;;;10.88;100.00;100522.78;688676;28;1254;-71
2023/04/29 00:59:22;;;;;;;15.48;9.48;;;;;;;10.97;100.00;100523.59;687991;28;1217;-72
2023/04/29 00:59:44;;;;;;;15.48;9.20;;;;;;;10.94;100.00;100520.97;688453;28;1353;-71
2023/04/29 01:00:05;;;;;;;16.38;9.63;;;;;;;10.92;100.00;100525.38;688787;28;981;-71
2023/04/29 01:00:26;;;;;;;15.88;9.05;;;;;;;10.92;100.00;100528.84;687027;28;1468;-71
2023/04/29 01:00:46;;;;;;;16.63;9.33;;;;;;;10.96;100.00;100520.09;684408;28;4299;-71
2023/04/29 01:01:07;;;;;;;16.77;9.90;;;;;;;10.93;100.00;100529.72;686203;28;1096;-70
2023/04/29 01:01:31;;;;;;;16.10;9.70;;;;;;;10.86;100.00;100529.75;687831;28;857;-71
2023/04/29 01:01:52;;;;;;;16.85;10.02;;;;;;;10.82;100.00;100527.19;684823;28;1440;-70
2023/04/29 01:02:13;;;;;;;15.95;9.88;;;;;;;10.84;100.00;100531.53;685323;28;1031;-71
2023/04/29 01:02:33;;;;;;;15.37;9.63;;;;;;;10.81;100.00;100528.06;686176;28;1375;-71
2023/04/29 01:02:55;;;;;;;14.97;9.33;;;;;;;10.81;100.00;100522.84;689427;28;765;-70
2023/04/29 01:03:19;;;;;;;15.43;9.52;;;;;;;10.88;100.00;100527.13;685221;28;1009;-70
2023/04/29 01:03:40;;;;;;;15.85;9.65;;;;;;;10.88;100.00;100533.25;681798;28;4304;-70
2023/04/29 01:04:01;;;;;;;15.95;9.85;;;;;;;10.81;100.00;100526.31;681335;28;1276;-71
2023/04/29 01:04:21;;;;;;;16.00;9.35;;;;;;;10.84;100.00;100526.31;681721;28;1249;-71
2023/04/29 01:04:42;;;;;;;15.57;9.30;;;;;;;10.76;100.00;100528.13;680073;29;1233;-71
2023/04/29 01:05:03;;;;;;;16.27;10.07;;;;;;;10.72;100.00;100531.63;678942;28;1511;-71
2023/04/29 01:05:24;;;;;;;16.30;9.90;;;;;;;10.69;100.00;100534.28;684341;28;790;-70
2023/04/29 01:05:53;;;;;;;17.25;10.15;;;;;;;10.69;100.00;100536.88;681185;28;1168;-71
2023/04/29 01:06:34;;;;;;;17.30;11.07;;;;;;;10.72;100.00;100535.09;683034;28;1550;-73
2023/04/29 01:07:06;;;;;;;17.50;10.27;;;;;;;10.66;100.00;100536.88;683040;28;4369;-71
2023/04/29 01:07:47;;;;;;;17.88;10.40;;;;;;;10.63;100.00;100529.06;681623;29;1314;-72
2023/04/29 01:08:27;;;;;;;17.50;10.52;;;;;;;10.66;100.00;100534.28;682782;28;1883;-68
2023/04/29 01:09:12;;;;;;;18.73;11.60;;;;;;;10.73;100.00;100531.59;687174;28;862;-69
2023/04/29 01:09:54;;;;;;;20.23;12.48;;;;;;;10.72;100.00;100537.72;691208;28;1311;-69
2023/04/29 01:10:27;;;;;;;20.30;12.05;;;;;;;10.63;100.00;100536.91;689284;28;5061;-70
2023/04/29 01:10:53;;;;;;;18.63;12.23;;;;;;;10.63;100.00;100542.13;690342;28;1310;-70
2023/04/29 01:11:18;;;;;;;18.50;11.43;;;;;;;10.66;100.00;100542.13;690983;28;1016;-69
2023/04/29 01:11:52;;;;;;;19.58;12.25;;;;;;;10.70;100.00;100534.25;688382;28;1437;-70
2023/04/29 01:12:21;;;;;;;20.17;12.32;;;;;;;10.69;100.00;100542.13;686428;28;1040;-70
2023/04/29 01:12:49;;;;;;;20.75;12.40;;;;;;;10.63;100.00;100540.38;683793;28;4313;-70
2023/04/29 01:13:33;;;;;;;19.52;11.20;;;;;;;10.72;100.00;100539.47;683730;28;1261;-72
2023/04/29 01:14:00;;;;;;;22.13;12.55;;;;;;;10.64;100.00;100546.50;683257;28;1607;-71
2023/04/29 01:14:22;;;;;;;20.92;12.70;;;;;;;10.61;100.00;100539.53;684406;28;1011;-69
2023/04/29 01:14:52;;;;;;;20.45;12.65;;;;;;;10.61;100.00;100543.91;687936;28;1404;-70
2023/04/29 01:15:28;;;;;;;24.80;13.55;;;;;;;10.47;100.00;100542.25;685447;28;1629;-70
2023/04/29 01:15:53;;;;;;;22.95;13.60;;;;;;;10.40;100.00;100537.94;686825;28;4583;-70
2023/04/29 01:16:22;;;;;;;24.98;14.40;;;;;;;10.49;100.00;100539.63;689462;28;1547;-72
2023/04/29 01:16:51;;;;;;;24.38;13.98;;;;;;;10.59;100.00;100543.03;690335;28;1296;-72
2023/04/29 01:17:18;;;;;;;24.98;13.90;;;;;;;10.57;100.00;100543.06;686242;28;1504;-71
2023/04/29 01:17:43;;;;;;;23.95;13.80;;;;;;;10.64;100.00;100538.66;683637;28;925;-70
2023/04/29 01:18:18;;;;;;;25.88;15.20;;;;;;;10.54;100.00;100543.09;680848;28;1464;-70
2023/04/29 01:18:56;;;;;;;26.65;15.27;;;;;;;10.50;100.00;100542.22;677136;29;4558;-70
2023/04/29 01:19:49;;;;;;;27.27;15.65;;;;;;;10.41;100.00;100539.66;675474;29;1684;-70
2023/04/29 01:20:11;;;;;;;30.17;17.35;;;;;;;10.35;100.00;100540.56;680870;28;1600;-70
2023/04/29 01:20:33;;;;;;;32.13;17.70;;;;;;;10.34;100.00;100536.22;683702;28;1265;-68
2023/04/29 01:20:55;;;;;;;32.58;18.13;;;;;;;10.32;100.00;100543.16;685141;28;798;-69
2023/04/29 01:21:17;;;;;;;29.67;17.08;;;;;;;10.28;100.00;100533.59;684029;28;1539;-69
2023/04/29 01:21:50;;;;;;;31.38;17.17;;;;;;;10.29;100.00;100537.09;683402;28;1373;-70
2023/04/29 01:22:11;;;;;;;30.42;18.02;;;;;;;10.38;100.00;100542.28;683293;28;4848;-70
2023/04/29 01:22:32;;;;;;;30.52;17.65;;;;;;;10.33;100.00;100539.69;682398;29;1454;-70
2023/04/29 01:22:52;;;;;;;30.03;17.43;;;;;;;10.34;100.00;100540.53;684766;28;1472;-69
2023/04/29 01:23:13;;;;;;;30.83;17.17;;;;;;;10.37;100.00;100530.97;685604;28;1484;-69
2023/04/29 01:23:34;;;;;;;32.83;18.33;;;;;;;10.45;100.00;100540.50;687844;28;1268;-70
2023/04/29 01:23:55;;;;;;;32.22;18.20;;;;;;;10.37;100.00;100540.56;687761;28;1377;-69
2023/04/29 01:24:17;;;;;;;32.00;18.85;;;;;;;10.31;100.00;100540.56;680994;28;1398;-69
2023/04/29 01:24:40;;;;;;;33.40;19.88;;;;;;;10.25;100.00;100532.78;680521;28;4738;-68
2023/04/29 01:25:01;;;;;;;35.10;19.45;;;;;;;10.39;100.00;100538.81;682942;28;1504;-70
2023/04/29 01:25:23;;;;;;;35.65;20.17;;;;;;;10.35;100.00;100542.31;682380;29;1216;-69
2023/04/29 01:25:57;;;;;;;36.78;19.23;;;;;;;10.29;100.00;100537.97;684392;28;1627;-69
2023/04/29 01:26:51;;;;;;;32.42;19.17;;;;;;;10.35;100.00;100543.16;676906;29;1241;-68
2023/04/29 01:27:39;;;;;;;34.65;20.70;;;;;;;10.44;100.00;100549.22;685711;28;718;-72
2023/04/29 01:28:20;;;;;;;34.20;19.35;;;;;;;10.46;100.00;100539.66;687283;28;5336;-67
2023/04/29 01:29:15;;;;;;;34.08;19.98;;;;;;;10.47;100.00;100533.56;687751;28;1608;-70
2023/04/29 01:30:00;;;;;;;39.15;21.17;;;;;;;10.47;100.00;100536.16;690751;28;1636;-68
2023/04/29 01:30:49;;;;;;;38.35;21.25;;;;;;;10.38;100.00;100537.06;688318;28;1531;-70
2023/04/29 01:31:27;;;;;;;40.83;21.48;;;;;;;10.28;100.00;100541.44;684867;28;6765;-69
2023/04/29 01:31:54;;;;;;;37.95;20.50;;;;;;;10.31;100.00;100541.41;682174;28;1522;-70
2023/04/29 01:32:41;;;;;;;36.97;20.77;;;;;;;10.39;100.00;100541.41;683981;28;1070;-69
2023/04/29 01:33:09;;;;;;;35.65;20.63;;;;;;;10.30;100.00;100538.81;680728;28;1197;-69
2023/04/29 01:33:54;;;;;;;36.63;21.15;;;;;;;10.31;100.00;100540.56;685007;28;1910;-69
2023/04/29 01:34:41;;;;;;;37.50;20.75;;;;;;;10.26;100.00;100540.59;688347;28;5027;-69
2023/04/29 01:35:11;;;;;;;39.33;21.70;;;;;;;10.23;100.00;100543.22;688476;28;1673;-69
2023/04/29 01:35:40;;;;;;;39.00;21.45;;;;;;;10.25;100.00;100543.22;689751;28;1364;-69
2023/04/29 01:36:12;;;;;;;36.95;21.55;;;;;;;10.26;100.00;100542.31;685630;28;1074;-70
2023/04/29 01:36:56;;;;;;;38.10;21.75;;;;;;;10.33;100.00;100544.06;689844;28;1075;-70
2023/04/29 01:38:13;;;;;;;39.63;21.25;;;;;;;10.39;100.00;100554.50;688994;28;5568;-71
2023/04/29 01:38:59;;;;;;;37.65;20.45;;;;;;;10.28;100.00;100543.19;679320;29;1732;-69
2023/04/29 01:39:36;;;;;;;38.25;21.38;;;;;;;10.22;100.00;100549.34;675741;29;1379;-69
2023/04/29 01:40:14;;;;;;;39.70;21.67;;;;;;;10.30;100.00;100547.53;682647;28;5448;-69
2023/04/29 01:41:09;;;;;;;37.22;21.25;;;;;;;10.32;100.00;100545.78;680791;29;1227;-69
2023/04/29 01:42:04;;;;;;;41.90;21.98;;;;;;;10.29;100.00;100547.56;673365;29;1656;-70
2023/04/29 01:42:44;;;;;;;38.67;22.10;;;;;;;10.25;100.00;100543.22;681799;28;1756;-70
2023/04/29 01:43:10;;;;;;;39.88;21.75;;;;;;;10.36;100.00;100544.06;687385;28;4736;-70
2023/04/29 01:43:33;;;;;;;38.92;22.10;;;;;;;10.33;100.00;100546.66;688022;28;1485;-70
2023/04/29 01:44:03;;;;;;;38.42;21.35;;;;;;;10.39;100.00;100551.88;684659;28;1592;-70
2023/04/29 01:44:28;;;;;;;35.95;20.65;;;;;;;10.46;100.00;100550.97;684381;28;1487;-70
2023/04/29 01:44:51;;;;;;;36.13;20.50;;;;;;;10.54;100.00;100545.69;681138;28;1473;-70
2023/04/29 01:45:16;;;;;;;38.40;21.48;;;;;;;10.48;100.00;100557.06;682243;28;1541;-70
2023/04/29 01:45:40;;;;;;;36.50;21.05;;;;;;;10.39;100.00;100554.50;681339;28;1257;-70
2023/04/29 01:46:03;;;;;;;39.70;21.90;;;;;;;10.42;100.00;100551.84;684433;28;4891;-70
2023/04/29 01:46:23;;;;;;;39.17;22.35;;;;;;;10.36;100.00;100550.16;682840;28;1067;-69
2023/04/29 01:46:52;;;;;;;37.75;22.05;;;;;;;10.34;100.00;100549.31;686308;28;1004;-70
2023/04/29 01:47:14;;;;;;;36.95;21.67;;;;;;;10.33;100.00;100549.28;680883;28;1415;-69
2023/04/29 01:47:39;;;;;;;37.65;21.33;;;;;;;10.33;100.00;100549.28;680062;29;1193;-69
2023/04/29 01:48:01;;;;;;;37.47;21.10;;;;;;;10.35;100.00;100552.78;676105;29;1105;-70
2023/04/29 01:48:23;;;;;;;35.67;19.88;;;;;;;10.31;100.00;100545.78;679027;29;1098;-69
2023/04/29 01:48:45;;;;;;;37.67;21.20;;;;;;;10.23;100.00;100546.72;682850;28;4374;-70
2023/04/29 01:49:08;;;;;;;36.55;20.67;;;;;;;10.23;100.00;100554.53;681498;28;1019;-69
2023/04/29 01:49:29;;;;;;;35.88;20.98;;;;;;;10.20;100.00;100549.34;684897;28;1403;-69
2023/04/29 01:49:49;;;;;;;36.60;21.13;;;;;;;10.15;100.00;100548.50;682019;28;832;-71
2023/04/29 01:50:10;;;;;;;37.20;20.80;;;;;;;10.29;100.00;100547.56;682983;28;909;-72
2023/04/29 01:50:31;;;;;;;37.97;21.13;;;;;;;10.28;100.00;100551.91;684485;28;1240;-70
2023/04/29 01:51:00;;;;;;;36.13;21.30;;;;;;;10.27;100.00;100544.94;684745;28;1268;-69
2023/04/29 01:51:20;;;;;;;38.97;21.60;;;;;;;10.27;100.00;100552.75;687387;28;1024;-70
2023/04/29 01:51:41;;;;;;;36.67;20.83;;;;;;;10.25;100.00;100549.31;682972;28;4330;-69
2023/04/29 01:52:02;;;;;;;35.17;20.42;;;;;;;10.18;100.00;100545.84;679398;28;1579;-68
2023/04/29 01:52:23;;;;;;;36.30;21.45;;;;;;;10.14;100.00;100548.50;681870;28;1293;-69
2023/04/29 01:52:48;;;;;;;38.28;20.85;;;;;;;10.16;100.00;100552.84;679836;29;1281;-70
2023/04/29 01:53:08;;;;;;;37.10;20.50;;;;;;;10.14;100.00;100554.59;682593;28;1256;-70